Latest Weather Observations for Hogan Island

IDT60801

Issued at 9:31 pm EST Sunday 30 August 2015 (issued every 30 minutes, with the page automatically refreshed every 10 minutes)

About weather observations | Map of weather stations | Latest weather observations for TAS | Other Formats
Station Details ID: 200838 Name: HOGAN ISLAND Lat: -39.22 Lon: 146.98 Height: 116.0 m
Data from the previous 72 hours. | See also: Recent months at Hogan Island
Date/Time
EST
Temp
°C
App
Temp
°C
Dew
Point
Rel
Hum
%
Delta-T
°C
Wind Press
QNH
hPa
Press
MSL
hPa
Rain
since 9 am
mm
Dir
 
Spd
km/h
Gust
km/h
Spd
kts
Gust
kts
30/09:30pm 8.2 3.7 4.2 76 1.7 SW 17 19 9 10 1022.6 - 0.0
30/09:00pm 8.3 3.8 4.3 76 1.8 WSW 17 20 9 11 1022.6 1022.7 0.0
30/08:30pm 8.1 4.0 4.1 76 1.7 SW 15 17 8 9 1022.6 - 0.0
30/08:00pm 8.3 3.8 4.3 76 1.8 SW 17 22 9 12 1022.4 - 0.0
30/07:30pm 8.3 3.4 4.3 76 1.8 SW 19 22 10 12 1022.4 - 0.0
30/07:00pm 8.1 3.6 4.1 76 1.7 SW 17 20 9 11 1022.3 - 0.0
30/06:30pm 7.7 3.5 3.6 75 1.8 SW 15 19 8 10 1022.2 - 0.0
30/06:00pm 8.1 3.5 3.6 73 1.9 SW 17 22 9 12 1022.0 1022.1 0.0
30/05:30pm 8.5 3.9 3.8 72 2.0 SW 17 20 9 11 1021.8 - 0.0
30/05:00pm 9.4 4.9 4.0 69 2.4 SW 17 20 9 11 1021.6 - 0.0
30/04:30pm 10.2 6.5 4.4 67 2.6 WSW 13 17 7 9 1021.6 - 0.0
30/04:00pm 10.5 6.0 4.4 66 2.7 SW 17 19 9 10 1021.7 - 0.0
30/03:30pm 11.1 6.3 4.8 65 2.9 SW 19 22 10 12 1021.8 - 0.0
30/03:00pm 11.2 6.7 4.4 63 3.1 SW 17 22 9 12 1021.8 1021.9 0.0
30/02:30pm 11.4 8.0 3.9 60 3.4 W 11 15 6 8 1021.9 - 0.0
30/02:00pm 11.4 7.6 3.9 60 3.4 WSW 13 17 7 9 1022.1 - 0.0
30/01:30pm 11.2 7.7 3.7 60 3.3 SW 11 15 6 8 1022.3 - 0.0
30/01:00pm 11.5 7.0 4.3 61 3.3 WSW 17 20 9 11 1022.5 - 0.0
30/12:30pm 12.1 7.9 5.5 64 3.1 SW 17 20 9 11 1022.9 - 0.0
30/12:00pm 11.8 7.5 5.4 65 3.0 WSW 17 20 9 11 1023.1 1023.2 0.0
30/11:30am 11.7 7.8 5.3 65 3.0 WSW 15 20 8 11 1023.5 - 0.0
30/11:00am 9.5 5.4 4.3 70 2.3 WSW 15 19 8 10 1023.9 - 0.0
30/10:30am 9.8 6.5 4.8 71 2.3 SW 11 17 6 9 1024.0 - 0.0
30/10:00am 10.1 6.9 5.1 71 2.3 SW 11 15 6 8 1024.0 - 0.0
30/09:30am 10.0 6.7 4.8 70 2.3 SW 11 15 6 8 1024.1 - 0.0
30/09:00am 10.1 6.9 5.3 72 2.2 SSW 11 15 6 8 1024.0 1024.1 0.0
30/08:30am 9.8 6.6 5.2 73 2.1 S 11 17 6 9 1023.9 - 0.0
30/08:00am 9.2 5.3 5.2 76 1.8 S 15 20 8 11 1023.8 - 0.0
30/07:30am 8.3 3.9 4.9 79 1.5 S 17 19 9 10 1023.6 - 0.0
30/07:00am 7.2 2.2 3.8 79 1.5 S 19 22 10 12 1023.2 - 0.0
30/06:30am 7.2 2.6 3.6 78 1.5 S 17 20 9 11 1022.9 - 0.0
30/06:00am 7.2 2.0 3.4 77 1.6 S 20 26 11 14 1022.6 1022.7 0.0
30/05:30am 7.7 1.0 3.7 76 1.7 S 28 33 15 18 1022.3 - 0.0
30/05:00am 7.6 1.3 3.5 75 1.8 S 26 35 14 19 1022.1 - 0.0
30/04:30am 7.8 1.1 3.5 74 1.8 S 28 35 15 19 1022.0 - 0.0
30/04:00am 7.8 1.1 3.5 74 1.8 S 28 35 15 19 1021.8 - 0.0
30/03:30am 8.2 1.1 3.7 73 2.0 S 30 39 16 21 1021.8 - 0.0
30/03:00am 8.4 0.4 3.8 73 2.0 S 35 44 19 24 1021.9 1022.0 0.0
30/02:30am 8.2 1.2 4.2 76 1.8 S 30 37 16 20 1021.9 - 0.0
30/02:00am 8.2 0.8 4.0 75 1.8 S 32 41 17 22 1022.0 - 0.0
30/01:30am 8.2 1.2 3.9 74 1.9 S 30 35 16 19 1022.4 - 0.0
30/01:00am 8.5 0.9 4.1 74 1.9 S 33 41 18 22 1022.4 - 0.0
30/12:30am 8.5 1.1 3.9 73 2.0 S 32 39 17 21 1022.8 - 0.0
30/12:00am 8.8 0.9 4.4 74 1.9 SSE 35 43 19 23 1022.7 1022.8 0.0
 
Date/Time
EST
Temp
°C
App
Temp
°C
Dew
Point
Rel
Hum
%
Delta-T
°C
Wind Press
QNH
hPa
Press
MSL
hPa
Rain
since 9 am
mm
Dir
 
Spd
km/h
Gust
km/h
Spd
kts
Gust
kts
29/11:30pm 9.0 1.6 4.8 75 1.9 SSE 33 41 18 22 1022.7 - 0.0
29/11:00pm 9.2 1.8 5.0 75 1.9 S 33 41 18 22 1022.8 - 0.0
29/10:30pm 9.3 2.7 6.0 80 1.5 S 30 37 16 20 1023.0 - 0.0
29/10:00pm 9.4 4.5 6.8 84 1.2 S 22 30 12 16 1022.9 - 0.0
29/09:30pm 10.4 5.7 7.8 84 1.3 SSW 22 33 12 18 1022.7 - 0.0
29/09:00pm 10.5 5.4 7.7 83 1.3 SW 24 35 13 19 1022.6 1022.7 0.0
29/08:30pm 10.4 4.1 7.5 82 1.4 SW 30 37 16 20 1022.3 - 0.0
29/08:00pm 10.6 4.7 7.5 81 1.5 SW 28 35 15 19 1022.0 - 0.0
29/07:30pm 10.7 3.5 7.6 81 1.5 SW 35 39 19 21 1021.9 - 0.0
29/07:00pm 10.7 3.5 7.6 81 1.5 SW 35 39 19 21 1021.7 - 0.0
29/06:30pm 10.8 2.8 7.5 80 1.6 SW 39 46 21 25 1021.4 - 0.0
29/06:00pm 10.5 1.7 7.2 80 1.6 SW 43 48 23 26 1021.0 1021.1 0.0
29/05:30pm 10.6 1.5 6.9 78 1.8 SW 44 52 24 28 1020.8 - 0.0
29/05:00pm 11.1 3.0 7.0 76 2.0 SW 39 48 21 26 1020.6 - 0.0
29/04:30pm 12.0 3.7 7.9 76 2.0 WSW 41 50 22 27 1020.4 - 0.0
29/04:00pm 11.1 2.2 7.0 76 2.0 SW 43 52 23 28 1020.3 - 0.0
29/03:30pm 12.0 3.3 7.9 76 2.0 SW 43 50 23 27 1020.2 - 0.0
29/03:00pm 11.6 2.3 7.5 76 2.0 WSW 46 54 25 29 1020.0 1020.1 0.0
29/02:30pm 11.8 1.8 7.7 76 2.0 SW 50 59 27 32 1019.9 - 0.0
29/02:00pm 12.4 2.8 8.1 75 2.1 WSW 48 59 26 32 1019.7 - 0.0
29/01:30pm 11.6 2.0 7.9 78 1.8 WSW 48 56 26 30 1019.7 - 0.0
29/01:00pm 11.5 1.4 7.2 75 2.1 SW 50 59 27 32 1020.0 - 0.0
29/12:30pm 11.0 1.3 7.3 78 1.8 WSW 48 57 26 31 1020.1 - 0.0
29/12:00pm 10.6 -0.4 6.7 77 1.8 WSW 54 63 29 34 1020.4 1020.5 0.0
29/11:30am 11.1 -0.3 6.8 75 2.1 WSW 56 65 30 35 1020.3 - 0.0
29/11:00am 10.5 -0.9 6.6 77 1.8 SW 56 65 30 35 1020.4 - 0.0
29/10:30am 10.4 -1.3 6.4 76 1.9 SW 57 69 31 37 1020.2 - 0.0
29/10:00am 10.5 -0.9 6.6 77 1.8 SW 56 65 30 35 1020.1 - 0.0
29/09:30am 9.9 -1.6 6.1 77 1.8 SW 56 67 30 36 1020.1 - 0.0
29/09:00am 9.5 -2.3 5.9 78 1.7 SW 57 - 31 - - 1020.2 0.2
29/08:30am 9.0 -3.5 5.9 81 1.4 SW 61 72 33 39 1019.6 - 0.2
29/08:00am 8.5 -3.7 5.6 82 1.3 WSW 59 74 32 40 1019.6 - 0.2
29/07:30am 8.1 -5.6 5.7 85 1.1 WSW 67 80 36 43 1019.6 - 0.2
29/07:09am 7.9 -6.4 5.4 84 1.1 WSW 70 89 38 48 1019.4 - 0.2
29/07:00am 8.2 -7.3 5.3 82 1.3 WSW 76 91 41 49 1019.0 - 0.0
29/06:46am 8.0 -8.3 5.1 82 1.3 WSW 80 98 43 53 1018.7 - 0.0
29/06:30am 7.2 -9.4 3.8 79 1.5 WSW 80 93 43 50 1018.5 - 0.0
29/06:00am 8.4 -7.7 4.0 74 1.9 WSW 78 93 42 50 1018.4 1018.6 0.0
29/05:30am 8.0 -8.6 3.3 72 2.0 W 80 91 43 49 1018.5 - 0.0
29/05:00am 7.8 -7.0 2.9 71 2.1 WSW 70 83 38 45 1019.2 - 0.0
29/04:30am 7.4 -7.4 1.9 68 2.3 WSW 69 82 37 44 1019.6 - 0.0
29/04:00am 7.4 -6.2 2.3 70 2.1 WSW 63 74 34 40 1020.2 - 0.0
29/03:30am 7.2 -6.1 1.9 69 2.2 WSW 61 76 33 41 1020.7 - 0.0
29/03:00am 7.1 -6.6 1.6 68 2.2 WSW 63 74 34 40 1021.1 1021.2 0.0
29/02:30am 7.1 -5.6 0.5 63 2.6 SW 57 70 31 38 1022.1 - 0.0
29/02:00am 7.2 -4.6 0.4 62 2.7 SW 52 61 28 33 1022.4 - 0.0
29/01:30am 7.5 -3.5 0.7 62 2.7 SW 48 57 26 31 1022.5 - 0.0
29/01:00am 7.8 -2.6 1.9 66 2.4 SW 46 56 25 30 1022.6 - 0.0
29/12:30am 8.3 -1.1 2.5 67 2.4 SW 41 50 22 27 1022.8 - 0.0
29/12:00am 8.4 -0.1 3.1 69 2.3 WSW 37 48 20 26 1023.0 1023.1 0.0
 
Date/Time
EST
Temp
°C
App
Temp
°C
Dew
Point
Rel
Hum
%
Delta-T
°C
Wind Press
QNH
hPa
Press
MSL
hPa
Rain
since 9 am
mm
Dir
 
Spd
km/h
Gust
km/h
Spd
kts
Gust
kts
28/11:30pm 8.1 -0.5 0.1 57 3.2 WSW 35 41 19 22 1023.3 - 0.0
28/11:00pm 7.9 -0.4 -0.3 56 3.2 WSW 33 39 18 21 1023.6 - 0.0
28/10:30pm 7.7 0.4 0.0 58 3.0 WSW 28 33 15 18 1023.8 - 0.0
28/10:00pm 7.9 1.0 0.4 59 3.0 SW 26 32 14 17 1024.0 - 0.0
28/09:30pm 8.0 1.8 0.0 57 3.2 SSW 22 32 12 17 1024.2 - 0.0
28/09:00pm 7.9 1.7 -0.1 57 3.1 SW 22 33 12 18 1024.2 1024.3 0.0
28/08:30pm 7.7 1.2 0.4 60 2.9 SSW 24 32 13 17 1024.2 - 0.0
28/08:00pm 7.8 1.9 1.6 65 2.5 SW 22 32 12 17 1024.1 - 0.0
28/07:30pm 7.7 1.9 2.2 68 2.3 SSW 22 28 12 15 1023.9 - 0.0
28/07:00pm 7.1 1.5 1.4 67 2.3 S 20 28 11 15 1023.9 - 0.0
28/06:30pm 7.5 1.6 1.6 66 2.4 SSW 22 28 12 15 1023.7 - 0.0
28/06:00pm 7.5 2.0 2.0 68 2.3 SSW 20 26 11 14 1023.4 1023.5 0.0
28/05:30pm 7.7 1.7 3.2 73 1.9 S 24 28 13 15 1023.2 - 0.0
28/05:00pm 8.1 4.4 4.7 79 1.5 S 13 17 7 9 1023.2 - 0.0
28/04:30pm 7.9 2.2 4.7 80 1.4 S 24 30 13 16 1023.2 - 0.0
28/04:00pm 8.7 1.9 5.3 79 1.5 S 30 35 16 19 1023.1 - 0.0
28/03:30pm 9.3 2.2 6.4 82 1.4 S 33 37 18 20 1023.0 - 0.0
28/03:00pm 9.4 2.3 5.6 77 1.7 S 32 39 17 21 1022.9 1023.0 0.0
28/02:30pm 11.7 7.4 7.0 73 2.3 SE 19 24 10 13 1022.8 - 0.0
28/02:00pm 10.7 5.8 7.0 78 1.8 SE 22 28 12 15 1022.6 - 0.0
28/01:30pm 10.1 4.7 6.4 78 1.7 SE 24 30 13 16 1022.6 - 0.0
28/01:00pm 12.0 7.9 8.5 79 1.7 ESE 20 24 11 13 1022.8 - 0.0
28/12:30pm 11.9 8.0 9.3 84 1.3 SE 20 24 11 13 1023.1 - 0.0
28/12:00pm 12.2 8.5 10.1 87 1.1 ESE 20 24 11 13 1023.4 1023.5 0.0
28/11:30am 10.8 6.4 9.1 89 0.9 E 22 24 12 13 1023.5 - 0.0
28/11:00am 12.6 9.1 11.0 90 0.8 S 20 24 11 13 1023.4 - 0.0
28/10:30am 11.1 7.5 9.7 91 0.7 S 19 22 10 12 1023.4 - 0.0
28/10:00am 10.8 8.7 9.7 93 0.6 SW 11 17 6 9 1023.2 - 0.0
28/09:30am 10.6 9.2 9.5 93 0.6 WSW 7 9 4 5 1023.2 - 0.0
28/09:00am 10.1 8.8 9.2 94 0.4 S 6 7 3 4 1023.1 1023.2 3.0
28/08:30am 9.2 7.5 8.3 94 0.4 ESE 7 9 4 5 1022.8 - 3.0
28/08:00am 8.6 5.2 7.7 94 0.4 SE 15 19 8 10 1022.9 - 3.0
28/07:30am 8.4 5.4 7.5 94 0.4 ESE 13 13 7 7 1022.5 - 1.8
28/07:00am 8.6 3.1 7.7 94 0.4 SE 26 33 14 18 1022.2 - 1.8
28/06:30am 9.1 3.7 8.0 93 0.5 SE 26 30 14 16 1021.9 - 1.6
28/06:00am 8.6 2.3 7.5 93 0.5 SE 30 33 16 18 1021.5 1021.6 1.6
28/05:30am 9.2 3.4 8.1 93 0.5 SSE 28 35 15 19 1021.3 - 0.0
28/05:00am 9.6 4.3 8.5 93 0.5 SE 26 30 14 16 1020.9 - 0.0
28/04:30am 9.8 4.6 8.9 94 0.4 SSE 26 33 14 18 1020.7 - 0.0
28/04:00am 9.7 5.6 8.8 94 0.4 SE 20 26 11 14 1020.5 - 0.0
28/03:30am 9.7 5.3 8.8 94 0.4 SSE 22 28 12 15 1020.2 - 0.0
28/03:00am 10.1 6.1 9.2 94 0.4 SSE 20 24 11 13 1020.2 1020.3 0.0
28/02:30am 10.1 6.1 9.2 94 0.4 SSE 20 24 11 13 1020.4 - 0.0
28/02:00am 10.0 6.0 9.1 94 0.4 S 20 26 11 14 1020.6 - 0.0
28/01:30am 10.1 6.1 9.0 93 0.5 S 20 24 11 13 1020.6 - 0.0
28/01:00am 10.1 6.7 9.0 93 0.5 SSW 17 28 9 15 1020.5 - 0.0
28/12:30am 9.7 7.3 8.6 93 0.5 SSW 11 17 6 9 1020.5 - 0.0
28/12:00am 9.6 5.7 8.5 93 0.5 SSW 19 26 10 14 1020.5 1020.6 0.0
 
Date/Time
EST
Temp
°C
App
Temp
°C
Dew
Point
Rel
Hum
%
Delta-T
°C
Wind Press
QNH
hPa
Press
MSL
hPa
Rain
since 9 am
mm
Dir
 
Spd
km/h
Gust
km/h
Spd
kts
Gust
kts
27/11:30pm 10.1 5.3 8.9 92 0.6 S 24 30 13 16 1020.6 - 0.0
27/11:00pm 10.3 5.6 9.1 92 0.6 SW 24 30 13 16 1020.6 - 0.0
27/10:30pm 10.3 5.6 9.1 92 0.6 SSW 24 33 13 18 1020.6 - 0.0
27/10:00pm 10.7 6.8 9.6 93 0.6 SSW 20 33 11 18 1020.7 - 0.0

Other Formats:

Comma delimited format used in spreadsheet applications
http://www.bom.gov.au/fwo/IDT60801/IDT60801.94949.axf

JavaScript Object Notation format (JSON) in row-major order
http://www.bom.gov.au/fwo/IDT60801/IDT60801.94949.json